Time;durP1;ratioP1;P1;durP2;ratioP2;P2;SDS_P1;SDS_P2;PMS_P1;PMS_P2;Temp;Humidity;BMP_temperature;BMP_pressure;BME280_temperature;BME280_humidity;BME280_pressure;Samples;Min_cycle;Max_cycle;Signal;HPM_P1;HPM_P2
2023/01/06 00:00:30;;;;;;;7.25;3.58;;;;;;;;;;5032929;28;20446;-77
2023/01/06 00:02:58;;;;;;;4.50;3.08;;;;;;;;;;5032156;28;20048;-77
2023/01/06 00:05:30;;;;;;;10.52;3.80;;;;;;;;;;5032880;28;20033;-76
2023/01/06 00:07:56;;;;;;;;;;;;;;;;;;5014728;28;20030;-77
2023/01/06 00:10:22;;;;;;;8.10;3.42;;;;;;;;;;5032330;28;19905;-76
2023/01/06 00:12:48;;;;;;;5.53;3.63;;;;;;;;;;5032298;28;20028;-77
2023/01/06 00:15:15;;;;;;;5.28;3.42;;;;;;;;;;5032576;28;20028;-76
2023/01/06 00:17:42;;;;;;;8.13;3.53;;;;;;;;;;5032437;28;20083;-77
2023/01/06 00:20:09;;;;;;;7.05;4.32;;;;;;;;;;5015086;28;20111;-78
2023/01/06 00:22:35;;;;;;;8.27;3.97;;;;;;;;;;5032788;28;20022;-77
2023/01/06 00:25:01;;;;;;;9.48;3.70;;;;;;;;;;5033394;28;20074;-77
2023/01/06 00:27:27;;;;;;;7.22;3.97;;;;;;;;;;5032992;28;20489;-77
2023/01/06 00:29:53;;;;;;;6.32;3.63;;;;;;;;;;5034761;28;20099;-78
2023/01/06 00:32:19;;;;;;;10.88;4.30;;;;;;;;;;5016947;28;20026;-77
2023/01/06 00:34:45;;;;;;;6.20;3.95;;;;;;;;;;5033809;28;20106;-77
2023/01/06 00:37:11;;;;;;;8.60;3.70;;;;;;;;;;5033098;28;20029;-78
2023/01/06 00:39:37;;;;;;;8.07;3.72;;;;;;;;;;5015707;28;20041;-77
2023/01/06 00:42:03;;;;;;;11.45;4.70;;;;;;;;;;5034051;28;20022;-77
2023/01/06 00:44:29;;;;;;;7.55;3.88;;;;;;;;;;5033046;28;20026;-78
2023/01/06 00:46:56;;;;;;;10.32;4.05;;;;;;;;;;5014444;28;20040;-78
2023/01/06 00:49:22;;;;;;;7.18;3.70;;;;;;;;;;5030678;28;20025;-78
2023/01/06 00:51:48;;;;;;;6.63;3.58;;;;;;;;;;5032790;28;20067;-78
2023/01/06 00:54:14;;;;;;;9.30;2.88;;;;;;;;;;5014889;28;20052;-78
2023/01/06 00:56:47;;;;;;;6.78;3.75;;;;;;;;;;5031712;28;20435;-78
2023/01/06 00:59:14;;;;;;;4.43;3.05;;;;;;;;;;5030985;28;20025;-78
2023/01/06 01:01:40;;;;;;;7.88;3.53;;;;;;;;;;5032421;28;20017;-78
2023/01/06 01:04:07;;;;;;;6.25;3.08;;;;;;;;;;5032396;28;20387;-78
2023/01/06 01:06:33;;;;;;;4.65;2.83;;;;;;;;;;5032230;28;20071;-77
2023/01/06 01:09:00;;;;;;;10.02;3.17;;;;;;;;;;5031962;28;20041;-77
2023/01/06 01:14:13;;;;;;;7.43;3.30;;;;;;;;;;5032278;28;20185;-77
2023/01/06 01:16:39;;;;;;;7.55;3.55;;;;;;;;;;5031976;28;20037;-78
2023/01/06 01:19:05;;;;;;;5.35;3.38;;;;;;;;;;5013747;28;20029;-78
2023/01/06 01:21:31;;;;;;;5.70;3.60;;;;;;;;;;5031775;28;20017;-77
2023/01/06 01:23:57;;;;;;;6.00;3.03;;;;;;;;;;5031882;28;20372;-78
2023/01/06 01:26:23;;;;;;;8.23;2.90;;;;;;;;;;5013920;28;20515;-77
2023/01/06 01:28:49;;;;;;;6.07;2.78;;;;;;;;;;5024977;28;20061;-77
2023/01/06 01:31:16;;;;;;;8.60;2.70;;;;;;;;;;5028594;28;20100;-78
2023/01/06 01:33:42;;;;;;;10.75;2.45;;;;;;;;;;5009592;28;20116;-77
2023/01/06 01:36:09;;;;;;;8.70;2.97;;;;;;;;;;5029075;28;20024;-76
2023/01/06 01:38:35;;;;;;;10.27;3.08;;;;;;;;;;5029828;28;20108;-77
2023/01/06 01:41:02;;;;;;;4.15;2.95;;;;;;;;;;5030929;28;20487;-79
2023/01/06 01:43:43;;;;;;;6.65;3.90;;;;;;;;;;5031146;28;20328;-77
2023/01/06 01:46:09;;;;;;;;;;;;;;;;;;5024241;28;20029;-77
2023/01/06 01:48:35;;;;;;;10.00;5.60;;;;;;;;;;5030656;28;19911;-77
2023/01/06 01:51:04;;;;;;;7.43;5.00;;;;;;;;;;5031820;28;20059;-78
2023/01/06 01:53:35;;;;;;;12.20;5.78;;;;;;;;;;5031295;28;20476;-77
2023/01/06 01:56:01;;;;;;;;;;;;;;;;;;5031159;28;20104;-77
2023/01/06 01:58:34;;;;;;;10.00;5.50;;;;;;;;;;5029853;28;19991;-77
2023/01/06 02:01:00;;;;;;;9.60;4.90;;;;;;;;;;5012871;28;20033;-76
2023/01/06 02:03:27;;;;;;;7.60;4.88;;;;;;;;;;5012896;28;20048;-76
2023/01/06 02:05:55;;;;;;;10.82;4.68;;;;;;;;;;5030649;28;20025;-76
2023/01/06 02:08:33;;;;;;;13.18;5.75;;;;;;;;;;5031331;28;20030;-77
2023/01/06 02:10:59;;;;;;;11.93;4.68;;;;;;;;;;5032501;28;20029;-77
2023/01/06 02:13:25;;;;;;;12.95;4.70;;;;;;;;;;5013053;28;20032;-77
2023/01/06 02:15:53;;;;;;;9.90;5.50;;;;;;;;;;5012939;28;20483;-77
2023/01/06 02:18:22;;;;;;;10.77;5.13;;;;;;;;;;5011967;28;20543;-77
2023/01/06 02:21:06;;;;;;;15.65;5.90;;;;;;;;;;5030355;28;20595;-76
2023/01/06 02:23:44;;;;;;;7.80;4.40;;;;;;;;;;5030624;28;20421;-77
2023/01/06 02:26:19;;;;;;;11.18;5.47;;;;;;;;;;5012590;28;20454;-76
2023/01/06 02:28:51;;;;;;;11.85;4.80;;;;;;;;;;5029444;28;20030;-75
2023/01/06 02:31:36;;;;;;;11.18;4.68;;;;;;;;;;5030247;28;20480;-76
2023/01/06 02:34:41;;;;;;;6.63;4.47;;;;;;;;;;5030335;28;20376;-75
2023/01/06 02:37:13;;;;;;;7.60;3.95;;;;;;;;;;4949262;29;20502;-75
2023/01/06 02:40:11;;;;;;;10.35;4.82;;;;;;;;;;4949953;29;20445;-77
2023/01/06 02:43:09;;;;;;;10.43;4.28;;;;;;;;;;4956723;28;20058;-78
2023/01/06 02:45:47;;;;;;;11.05;4.57;;;;;;;;;;4992719;28;20541;-76
2023/01/06 02:48:23;;;;;;;10.18;5.18;;;;;;;;;;5033736;28;20036;-76
2023/01/06 02:51:01;;;;;;;14.15;5.40;;;;;;;;;;5034084;28;20080;-76
2023/01/06 02:53:42;;;;;;;6.20;4.50;;;;;;;;;;5033954;28;20396;-76
2023/01/06 02:56:09;;;;;;;7.45;4.15;;;;;;;;;;5033939;28;20036;-76
2023/01/06 02:58:54;;;;;;;9.30;4.72;;;;;;;;;;5032798;28;20480;-76
2023/01/06 03:01:26;;;;;;;4.95;3.55;;;;;;;;;;5034046;28;20049;-77
2023/01/06 03:03:52;;;;;;;6.72;3.85;;;;;;;;;;5032141;28;20117;-78
2023/01/06 03:06:21;;;;;;;8.10;4.30;;;;;;;;;;5033936;28;20475;-77
2023/01/06 03:08:48;;;;;;;7.07;3.47;;;;;;;;;;5034165;28;20029;-76
2023/01/06 03:11:14;;;;;;;10.60;3.83;;;;;;;;;;5034248;28;20064;-77
2023/01/06 03:14:00;;;;;;;7.43;3.95;;;;;;;;;;5034351;28;20479;-76
2023/01/06 03:16:26;;;;;;;6.93;2.80;;;;;;;;;;5020463;28;20034;-77
2023/01/06 03:18:52;;;;;;;6.93;2.85;;;;;;;;;;5033659;28;20501;-76
2023/01/06 03:21:20;;;;;;;4.57;2.85;;;;;;;;;;5034021;28;20020;-76
2023/01/06 03:23:47;;;;;;;4.05;2.60;;;;;;;;;;5034091;28;20025;-76
2023/01/06 03:26:13;;;;;;;6.18;2.75;;;;;;;;;;5033985;28;20032;-77
2023/01/06 03:28:39;;;;;;;4.45;2.67;;;;;;;;;;5033653;28;20453;-78
2023/01/06 03:31:05;;;;;;;7.20;3.22;;;;;;;;;;5033723;28;20026;-77
2023/01/06 03:33:41;;;;;;;5.18;2.70;;;;;;;;;;5033900;28;20017;-76
2023/01/06 03:36:13;;;;;;;5.38;2.60;;;;;;;;;;5033927;28;20021;-76
2023/01/06 03:38:43;;;;;;;17.15;3.88;;;;;;;;;;5033527;28;20102;-76
2023/01/06 03:43:10;;;;;;;11.32;3.13;;;;;;;;;;5016016;28;20017;-76
2023/01/06 03:44:17;;;;;;;6.75;3.30;;;;;;;;;;5037839;28;20029;-77
2023/01/06 03:46:47;;;;;;;6.13;3.22;;;;;;;;;;5034884;28;20085;-77
2023/01/06 03:49:18;;;;;;;10.57;3.50;;;;;;;;;;5000747;28;20030;-78
2023/01/06 03:52:03;;;;;;;6.25;3.20;;;;;;;;;;5033841;28;20017;-76
2023/01/06 03:54:32;;;;;;;4.45;3.17;;;;;;;;;;5033715;28;20029;-76
2023/01/06 03:56:58;;;;;;;4.88;3.08;;;;;;;;;;5014970;28;20025;-76
2023/01/06 03:59:26;;;;;;;6.80;3.03;;;;;;;;;;5034570;28;20082;-77
2023/01/06 04:01:52;;;;;;;8.35;3.50;;;;;;;;;;5033442;28;20021;-77
2023/01/06 04:04:18;;;;;;;9.85;3.67;;;;;;;;;;5015547;28;20018;-77
2023/01/06 04:06:44;;;;;;;6.32;3.20;;;;;;;;;;5033486;28;20483;-78
2023/01/06 04:09:10;;;;;;;7.38;3.78;;;;;;;;;;5015079;28;20026;-77
2023/01/06 04:14:21;;;;;;;7.88;3.50;;;;;;;;;;5033441;28;20033;-78
2023/01/06 04:16:47;;;;;;;7.10;4.00;;;;;;;;;;5032975;28;20029;-77
2023/01/06 04:19:14;;;;;;;8.00;3.53;;;;;;;;;;5032947;28;20026;-77
2023/01/06 04:21:40;;;;;;;7.32;3.53;;;;;;;;;;5011971;28;20022;-77
2023/01/06 04:24:06;;;;;;;7.50;3.90;;;;;;;;;;5024304;28;20026;-77
2023/01/06 04:26:32;;;;;;;10.95;4.32;;;;;;;;;;5033161;28;20018;-78
2023/01/06 04:28:59;;;;;;;6.80;4.07;;;;;;;;;;5032924;28;20022;-78
2023/01/06 04:31:25;;;;;;;11.15;4.47;;;;;;;;;;5032999;28;20029;-78
2023/01/06 04:33:51;;;;;;;14.68;4.68;;;;;;;;;;5015151;28;20053;-78
2023/01/06 04:36:19;;;;;;;11.77;5.07;;;;;;;;;;5032989;28;20029;-77
2023/01/06 04:38:45;;;;;;;9.35;4.43;;;;;;;;;;5032414;28;20052;-76
2023/01/06 04:41:11;;;;;;;7.93;4.60;;;;;;;;;;5032653;28;20041;-77
2023/01/06 04:43:37;;;;;;;10.70;5.13;;;;;;;;;;5015124;28;20116;-77
2023/01/06 04:46:03;;;;;;;12.38;5.35;;;;;;;;;;5032974;28;20025;-77
2023/01/06 04:48:29;;;;;;;9.63;4.75;;;;;;;;;;5032778;28;20030;-77
2023/01/06 04:51:02;;;;;;;8.52;5.07;;;;;;;;;;5032753;28;20052;-77
2023/01/06 04:53:28;;;;;;;12.90;5.93;;;;;;;;;;5014670;28;20029;-77
2023/01/06 04:55:54;;;;;;;10.20;5.72;;;;;;;;;;5032660;28;20025;-77
2023/01/06 04:58:20;;;;;;;10.52;5.65;;;;;;;;;;5030270;28;20021;-77
2023/01/06 05:00:46;;;;;;;10.50;5.03;;;;;;;;;;5014389;28;20026;-77
2023/01/06 05:03:12;;;;;;;15.63;6.40;;;;;;;;;;5032413;28;20020;-77
2023/01/06 05:05:38;;;;;;;11.73;5.40;;;;;;;;;;5032039;28;20363;-77
2023/01/06 05:08:04;;;;;;;11.18;5.60;;;;;;;;;;5032083;28;20156;-77
2023/01/06 05:10:30;;;;;;;13.45;4.68;;;;;;;;;;5032036;28;20116;-77
2023/01/06 05:12:56;;;;;;;12.63;5.40;;;;;;;;;;5031840;28;20069;-76
2023/01/06 05:15:22;;;;;;;9.00;4.80;;;;;;;;;;5031997;28;20079;-77
2023/01/06 05:17:48;;;;;;;9.60;4.82;;;;;;;;;;5031892;28;20021;-77
2023/01/06 05:20:14;;;;;;;11.85;4.78;;;;;;;;;;5032304;28;20021;-76
2023/01/06 05:22:40;;;;;;;13.50;5.43;;;;;;;;;;5032005;28;20518;-76
2023/01/06 05:25:07;;;;;;;12.80;5.43;;;;;;;;;;5031674;28;20017;-77
2023/01/06 05:27:33;;;;;;;11.90;5.28;;;;;;;;;;5031285;28;20049;-77
2023/01/06 05:29:59;;;;;;;16.02;5.88;;;;;;;;;;5032113;28;20508;-77
2023/01/06 05:32:25;;;;;;;9.63;6.15;;;;;;;;;;5014106;28;20021;-78
2023/01/06 05:34:51;;;;;;;10.10;6.00;;;;;;;;;;5032142;28;20036;-77
2023/01/06 05:37:17;;;;;;;18.80;6.32;;;;;;;;;;5031400;28;20029;-77
2023/01/06 05:39:43;;;;;;;18.23;7.22;;;;;;;;;;5031706;28;20048;-77
2023/01/06 05:42:09;;;;;;;16.45;7.03;;;;;;;;;;5031495;28;20021;-77
2023/01/06 05:44:35;;;;;;;12.30;6.85;;;;;;;;;;5014243;28;20018;-77
2023/01/06 05:47:00;;;;;;;16.20;6.60;;;;;;;;;;5031439;28;20419;-76
2023/01/06 05:49:26;;;;;;;14.90;7.00;;;;;;;;;;5031367;28;20100;-77
2023/01/06 05:51:52;;;;;;;15.32;7.35;;;;;;;;;;5031450;28;20390;-77
2023/01/06 05:54:18;;;;;;;11.48;6.50;;;;;;;;;;5031757;28;20025;-77
2023/01/06 05:56:44;;;;;;;13.10;6.75;;;;;;;;;;5013538;28;20525;-77
2023/01/06 05:59:10;;;;;;;18.20;7.70;;;;;;;;;;5013310;28;20034;-78
2023/01/06 06:01:36;;;;;;;12.90;6.95;;;;;;;;;;5031312;28;20104;-77
2023/01/06 06:04:02;;;;;;;13.02;7.57;;;;;;;;;;5031411;28;20506;-77
2023/01/06 06:06:29;;;;;;;12.48;7.95;;;;;;;;;;5031806;28;20025;-77
2023/01/06 06:08:55;;;;;;;13.98;7.57;;;;;;;;;;5031408;28;20028;-77
2023/01/06 06:11:22;;;;;;;13.07;8.10;;;;;;;;;;5013594;28;20022;-77
2023/01/06 06:13:49;;;;;;;13.05;8.00;;;;;;;;;;5031341;28;20052;-76
2023/01/06 06:16:16;;;;;;;13.43;8.43;;;;;;;;;;5031235;28;20503;-76
2023/01/06 06:18:42;;;;;;;21.45;8.95;;;;;;;;;;5013055;28;20117;-77
2023/01/06 06:21:13;;;;;;;14.50;9.35;;;;;;;;;;5034375;28;20503;-77
2023/01/06 06:23:39;;;;;;;14.53;8.60;;;;;;;;;;5022640;28;20017;-78
2023/01/06 06:26:06;;;;;;;17.83;9.85;;;;;;;;;;5035223;28;20036;-77
2023/01/06 06:28:34;;;;;;;15.45;10.13;;;;;;;;;;5034873;28;20463;-77
2023/01/06 06:31:05;;;;;;;22.02;10.65;;;;;;;;;;5035559;28;20036;-77
2023/01/06 06:33:31;;;;;;;17.15;9.75;;;;;;;;;;5001256;28;20025;-77
2023/01/06 06:35:57;;;;;;;15.77;9.02;;;;;;;;;;5017507;28;20056;-77
2023/01/06 06:38:24;;;;;;;16.10;9.05;;;;;;;;;;5034504;28;20553;-77
2023/01/06 06:40:50;;;;;;;16.73;8.43;;;;;;;;;;5034890;28;20026;-77
2023/01/06 06:43:16;;;;;;;16.17;8.25;;;;;;;;;;5036012;28;20471;-77
2023/01/06 06:45:45;;;;;;;17.58;8.75;;;;;;;;;;5038535;28;20435;-77
2023/01/06 06:48:11;;;;;;;19.63;9.10;;;;;;;;;;5034886;28;20184;-76
2023/01/06 06:50:37;;;;;;;19.13;8.68;;;;;;;;;;5034692;28;20033;-77
2023/01/06 06:53:03;;;;;;;16.02;8.15;;;;;;;;;;5034425;28;20021;-77
2023/01/06 06:55:29;;;;;;;19.42;9.05;;;;;;;;;;5034531;28;20056;-76
2023/01/06 06:57:55;;;;;;;18.45;8.95;;;;;;;;;;5035854;28;20040;-76
2023/01/06 07:00:21;;;;;;;16.95;8.70;;;;;;;;;;5018481;28;20442;-76
2023/01/06 07:02:48;;;;;;;25.88;10.27;;;;;;;;;;5035229;28;20033;-77
2023/01/06 07:05:14;;;;;;;19.88;9.40;;;;;;;;;;5017231;28;20021;-77
2023/01/06 07:07:40;;;;;;;18.58;10.65;;;;;;;;;;5034862;28;20096;-78
2023/01/06 07:10:06;;;;;;;26.60;10.20;;;;;;;;;;5035414;28;20041;-78
2023/01/06 07:12:32;;;;;;;17.55;9.60;;;;;;;;;;5016734;28;20029;-77
2023/01/06 07:14:58;;;;;;;20.17;10.35;;;;;;;;;;5016276;28;20029;-76
2023/01/06 07:17:27;;;;;;;22.17;8.90;;;;;;;;;;5033925;28;20032;-77
2023/01/06 07:19:54;;;;;;;24.27;9.73;;;;;;;;;;5034178;28;20102;-77
2023/01/06 07:22:20;;;;;;;19.83;8.95;;;;;;;;;;5022091;28;20548;-77
2023/01/06 07:24:46;;;;;;;24.05;10.00;;;;;;;;;;5033909;28;20022;-77
2023/01/06 07:27:12;;;;;;;21.98;9.98;;;;;;;;;;5034181;28;20018;-77
2023/01/06 07:29:38;;;;;;;23.20;10.00;;;;;;;;;;5026787;28;20032;-76
2023/01/06 07:32:04;;;;;;;20.30;10.25;;;;;;;;;;5014278;28;20017;-77
2023/01/06 07:34:30;;;;;;;23.98;9.95;;;;;;;;;;5033178;28;20044;-76
2023/01/06 07:36:57;;;;;;;22.48;10.02;;;;;;;;;;5032624;28;20429;-78
2023/01/06 07:39:23;;;;;;;19.05;10.20;;;;;;;;;;5014580;28;20079;-78
2023/01/06 07:41:49;;;;;;;18.38;9.68;;;;;;;;;;5015647;28;20381;-77
2023/01/06 07:44:15;;;;;;;18.67;9.73;;;;;;;;;;5034164;28;20025;-77
2023/01/06 07:46:41;;;;;;;19.38;10.52;;;;;;;;;;5015809;28;20026;-76
2023/01/06 07:49:07;;;;;;;18.55;11.35;;;;;;;;;;5030990;28;20206;-76
2023/01/06 07:51:33;;;;;;;21.73;10.93;;;;;;;;;;5033447;28;20112;-76
2023/01/06 07:54:00;;;;;;;21.98;11.23;;;;;;;;;;5035436;28;20547;-74
2023/01/06 07:56:26;;;;;;;23.83;11.10;;;;;;;;;;5034024;28;20127;-76
2023/01/06 07:58:53;;;;;;;24.35;13.20;;;;;;;;;;5034464;28;20108;-76
2023/01/06 08:01:19;;;;;;;24.92;11.43;;;;;;;;;;5034641;28;20526;-77
2023/01/06 08:03:45;;;;;;;25.40;12.25;;;;;;;;;;5033955;28;20032;-77
2023/01/06 08:06:12;;;;;;;23.10;12.20;;;;;;;;;;5016006;28;20026;-78
2023/01/06 08:08:39;;;;;;;19.67;10.88;;;;;;;;;;5033583;28;20503;-77
2023/01/06 08:11:06;;;;;;;24.17;12.45;;;;;;;;;;5033121;28;20041;-77
2023/01/06 08:13:32;;;;;;;22.58;12.07;;;;;;;;;;5033578;28;20025;-76
2023/01/06 08:15:59;;;;;;;17.33;10.75;;;;;;;;;;5034613;28;20044;-76
2023/01/06 08:18:25;;;;;;;22.25;12.30;;;;;;;;;;5033819;28;20025;-76
2023/01/06 08:20:51;;;;;;;23.52;12.20;;;;;;;;;;5034797;28;20017;-76
2023/01/06 08:23:17;;;;;;;17.63;11.05;;;;;;;;;;5015329;28;20075;-77
2023/01/06 08:25:43;;;;;;;20.50;11.32;;;;;;;;;;5033858;28;20117;-76
2023/01/06 08:28:09;;;;;;;19.27;11.40;;;;;;;;;;5036017;28;20189;-77
2023/01/06 08:30:38;;;;;;;17.65;10.85;;;;;;;;;;5036947;28;20025;-77
2023/01/06 08:33:04;;;;;;;20.48;9.57;;;;;;;;;;5036819;28;20030;-77
2023/01/06 08:35:30;;;;;;;16.67;8.90;;;;;;;;;;5019756;28;20068;-77
2023/01/06 08:37:56;;;;;;;18.27;9.45;;;;;;;;;;5036258;28;20037;-77
2023/01/06 08:40:22;;;;;;;9.50;5.80;;;;;;;;;;5036808;28;20018;-77
2023/01/06 08:42:48;;;;;;;6.65;4.88;;;;;;;;;;5038850;28;20128;-77
2023/01/06 08:45:15;;;;;;;6.22;4.32;;;;;;;;;;5039371;28;20083;-77
2023/01/06 08:47:41;;;;;;;8.20;5.25;;;;;;;;;;5036689;28;20029;-78
2023/01/06 08:50:07;;;;;;;9.73;5.55;;;;;;;;;;5017556;28;20565;-77
2023/01/06 08:52:33;;;;;;;6.78;3.33;;;;;;;;;;5045698;28;20444;-76
2023/01/06 08:54:59;;;;;;;5.53;3.50;;;;;;;;;;5048580;28;20036;-77
2023/01/06 08:57:25;;;;;;;4.97;3.10;;;;;;;;;;5048122;28;20029;-77
2023/01/06 08:59:51;;;;;;;4.03;2.55;;;;;;;;;;5046381;28;20041;-77
2023/01/06 09:02:17;;;;;;;3.85;3.45;;;;;;;;;;5046542;28;20017;-77
2023/01/06 09:04:43;;;;;;;11.80;6.22;;;;;;;;;;5043398;28;20578;-78
2023/01/06 09:07:09;;;;;;;6.72;4.32;;;;;;;;;;5023343;28;20169;-76
2023/01/06 09:09:44;;;;;;;8.73;5.60;;;;;;;;;;5039199;28;20488;-78
2023/01/06 09:12:10;;;;;;;9.57;5.72;;;;;;;;;;5034105;28;20116;-75
2023/01/06 09:14:36;;;;;;;10.85;6.45;;;;;;;;;;5032669;28;20480;-76
2023/01/06 09:17:02;;;;;;;8.27;5.10;;;;;;;;;;5032592;28;20026;-76
2023/01/06 09:19:28;;;;;;;6.47;5.03;;;;;;;;;;5032184;28;20029;-76
2023/01/06 09:21:54;;;;;;;12.32;5.00;;;;;;;;;;5032116;28;20024;-75
2023/01/06 09:24:20;;;;;;;3.83;3.10;;;;;;;;;;5032420;28;20018;-77
2023/01/06 09:26:46;;;;;;;3.42;2.25;;;;;;;;;;5014042;28;20552;-76
2023/01/06 09:29:12;;;;;;;4.80;2.38;;;;;;;;;;5013920;28;20041;-76
2023/01/06 09:31:38;;;;;;;2.95;2.47;;;;;;;;;;5032017;28;20052;-75
2023/01/06 09:34:04;;;;;;;3.03;2.22;;;;;;;;;;5031584;28;20395;-76
2023/01/06 09:36:31;;;;;;;2.00;1.80;;;;;;;;;;5031604;28;20029;-76
2023/01/06 09:38:57;;;;;;;1.92;1.60;;;;;;;;;;5031409;28;20109;-76
2023/01/06 09:41:23;;;;;;;2.78;1.98;;;;;;;;;;5013163;28;20099;-76
2023/01/06 09:43:49;;;;;;;1.77;1.48;;;;;;;;;;5014169;28;20061;-76
2023/01/06 09:46:18;;;;;;;3.83;1.70;;;;;;;;;;5031631;28;20029;-76
2023/01/06 09:48:58;;;;;;;2.55;1.40;;;;;;;;;;5013570;28;20075;-76
2023/01/06 09:51:25;;;;;;;2.40;1.60;;;;;;;;;;5031645;28;20018;-76
2023/01/06 09:53:53;;;;;;;2.65;0.95;;;;;;;;;;5031509;28;20080;-76
2023/01/06 09:56:23;;;;;;;1.55;1.17;;;;;;;;;;5030939;28;20036;-76
2023/01/06 09:59:07;;;;;;;2.10;1.27;;;;;;;;;;5031767;28;20034;-77
2023/01/06 10:01:42;;;;;;;1.70;1.15;;;;;;;;;;5030083;28;20149;-77
2023/01/06 10:04:14;;;;;;;1.52;0.90;;;;;;;;;;5028159;28;20018;-76
2023/01/06 10:06:46;;;;;;;1.33;1.00;;;;;;;;;;5030319;28;20021;-77
2023/01/06 10:09:21;;;;;;;2.17;1.20;;;;;;;;;;5012626;28;20017;-76
2023/01/06 10:12:01;;;;;;;1.45;1.17;;;;;;;;;;5012639;28;20025;-76
2023/01/06 10:14:46;;;;;;;1.27;1.15;;;;;;;;;;5030474;28;20021;-76
2023/01/06 10:17:21;;;;;;;2.13;1.20;;;;;;;;;;5012739;28;20057;-78
2023/01/06 10:19:50;;;;;;;2.20;1.65;;;;;;;;;;5028389;28;20037;-78
2023/01/06 10:22:25;;;;;;;2.25;1.40;;;;;;;;;;5031061;28;20025;-76
2023/01/06 10:25:11;;;;;;;2.00;1.25;;;;;;;;;;5028336;28;20030;-78
2023/01/06 10:27:42;;;;;;;1.88;1.33;;;;;;;;;;5032706;28;20025;-77
2023/01/06 10:30:37;;;;;;;3.05;1.60;;;;;;;;;;5011186;28;20022;-77
2023/01/06 10:33:04;;;;;;;2.13;1.30;;;;;;;;;;4990102;28;20037;-77
2023/01/06 10:35:32;;;;;;;1.98;1.33;;;;;;;;;;5004032;28;20483;-78
2023/01/06 10:37:58;;;;;;;1.38;1.00;;;;;;;;;;5010415;28;20101;-77
2023/01/06 10:40:26;;;;;;;3.40;1.20;;;;;;;;;;5025789;28;20021;-75
2023/01/06 10:43:02;;;;;;;2.58;1.20;;;;;;;;;;5011439;28;20022;-76
2023/01/06 10:45:50;;;;;;;2.40;1.52;;;;;;;;;;5011981;28;20514;-77
2023/01/06 10:48:20;;;;;;;1.98;1.10;;;;;;;;;;5026213;28;20114;-77
2023/01/06 10:50:46;;;;;;;1.50;1.00;;;;;;;;;;4998144;28;20480;-77
2023/01/06 10:53:13;;;;;;;2.03;1.55;;;;;;;;;;5008686;28;20080;-76
2023/01/06 10:55:45;;;;;;;0.90;0.80;;;;;;;;;;5022893;28;20029;-75
2023/01/06 10:58:11;;;;;;;0.70;0.50;;;;;;;;;;4991028;28;1106310;-77
2023/01/06 11:00:37;;;;;;;1.27;0.90;;;;;;;;;;5030726;28;20017;-76
2023/01/06 11:03:05;;;;;;;0.60;0.60;;;;;;;;;;5030878;28;20027;-77
2023/01/06 11:05:32;;;;;;;0.77;0.60;;;;;;;;;;5012875;28;20112;-76
2023/01/06 11:08:01;;;;;;;0.38;0.38;;;;;;;;;;5016288;28;20029;-76
2023/01/06 11:10:31;;;;;;;0.80;0.63;;;;;;;;;;5016459;28;20026;-76
2023/01/06 11:12:59;;;;;;;0.95;0.60;;;;;;;;;;5034508;28;20116;-76
2023/01/06 11:15:27;;;;;;;0.85;0.43;;;;;;;;;;5034107;28;20021;-77
2023/01/06 11:17:53;;;;;;;0.90;0.55;;;;;;;;;;5033789;28;20021;-77
2023/01/06 11:20:19;;;;;;;0.80;0.60;;;;;;;;;;5035313;28;20032;-76
2023/01/06 11:22:47;;;;;;;0.45;0.45;;;;;;;;;;5035233;28;20020;-77
2023/01/06 11:25:19;;;;;;;0.70;0.60;;;;;;;;;;5034977;28;20022;-76
2023/01/06 11:28:05;;;;;;;0.60;0.50;;;;;;;;;;5016919;28;20036;-77
2023/01/06 11:30:31;;;;;;;0.50;0.45;;;;;;;;;;5025812;28;20049;-78
2023/01/06 11:32:57;;;;;;;1.10;0.60;;;;;;;;;;5034651;28;20028;-76
2023/01/06 11:35:25;;;;;;;0.82;0.70;;;;;;;;;;5034944;28;20034;-76
2023/01/06 11:38:01;;;;;;;2.30;0.52;;;;;;;;;;5033826;28;20025;-76
2023/01/06 11:40:27;;;;;;;0.43;0.32;;;;;;;;;;5033987;28;20018;-76
2023/01/06 11:42:57;;;;;;;0.73;0.63;;;;;;;;;;5033841;28;20380;-76
2023/01/06 11:45:44;;;;;;;1.10;0.80;;;;;;;;;;5033817;28;20025;-75
2023/01/06 11:48:18;;;;;;;0.40;0.40;;;;;;;;;;5032795;28;20037;-76
2023/01/06 11:50:51;;;;;;;1.45;0.75;;;;;;;;;;5033569;28;20022;-77
2023/01/06 11:53:18;;;;;;;0.73;0.30;;;;;;;;;;5033735;28;20025;-77
2023/01/06 11:56:01;;;;;;;1.25;0.68;;;;;;;;;;5033593;28;20071;-77
2023/01/06 11:58:36;;;;;;;0.45;0.38;;;;;;;;;;5033318;28;20491;-78
2023/01/06 12:01:08;;;;;;;0.25;0.25;;;;;;;;;;5033695;28;20029;-78
2023/01/06 12:03:40;;;;;;;1.40;0.60;;;;;;;;;;5033769;28;20041;-77
2023/01/06 12:06:06;;;;;;;1.48;0.75;;;;;;;;;;5033518;28;20017;-76
2023/01/06 12:08:32;;;;;;;0.60;0.45;;;;;;;;;;5033150;28;20028;-76
2023/01/06 12:11:00;;;;;;;0.60;0.30;;;;;;;;;;5033800;28;20030;-77
2023/01/06 12:13:26;;;;;;;0.95;0.57;;;;;;;;;;5016223;28;20029;-77
2023/01/06 12:15:58;;;;;;;1.13;0.80;;;;;;;;;;5033918;28;20092;-78
2023/01/06 12:18:26;;;;;;;1.00;0.47;;;;;;;;;;5032538;28;20376;-77
2023/01/06 12:20:54;;;;;;;0.68;0.57;;;;;;;;;;5033328;28;20495;-76
2023/01/06 12:23:25;;;;;;;0.43;0.43;;;;;;;;;;5033524;28;20618;-77
2023/01/06 12:25:54;;;;;;;2.22;0.88;;;;;;;;;;5034023;28;20040;-78
2023/01/06 12:28:30;;;;;;;1.30;1.00;;;;;;;;;;5034136;28;20116;-78
2023/01/06 12:31:16;;;;;;;1.80;1.08;;;;;;;;;;5034790;28;20345;-77
2023/01/06 12:33:48;;;;;;;1.05;0.70;;;;;;;;;;5034801;28;20037;-77
2023/01/06 12:36:27;;;;;;;1.45;0.90;;;;;;;;;;5034206;28;20579;-78
2023/01/06 12:38:58;;;;;;;2.28;1.20;;;;;;;;;;5033409;28;20479;-78
2023/01/06 12:41:24;;;;;;;2.72;1.80;;;;;;;;;;5034087;28;20037;-78
2023/01/06 12:43:54;;;;;;;2.78;1.92;;;;;;;;;;5033554;28;20083;-77
2023/01/06 12:46:25;;;;;;;2.42;1.23;;;;;;;;;;5016390;28;20072;-78
2023/01/06 12:48:57;;;;;;;1.58;1.35;;;;;;;;;;5015372;28;20060;-78
2023/01/06 12:51:26;;;;;;;2.67;1.20;;;;;;;;;;5033035;28;20111;-77
2023/01/06 12:54:06;;;;;;;2.65;1.15;;;;;;;;;;5032470;28;20044;-78
2023/01/06 12:56:55;;;;;;;1.58;0.80;;;;;;;;;;5016546;28;20521;-78
2023/01/06 12:59:30;;;;;;;1.10;0.60;;;;;;;;;;5032812;28;20037;-79
2023/01/06 13:02:03;;;;;;;1.65;0.95;;;;;;;;;;5014850;28;20017;-77
2023/01/06 13:04:29;;;;;;;1.98;1.20;;;;;;;;;;5032150;28;20022;-78
2023/01/06 13:07:04;;;;;;;1.80;0.98;;;;;;;;;;5033004;28;20021;-77
2023/01/06 13:09:30;;;;;;;1.00;0.88;;;;;;;;;;5036809;28;20021;-78
2023/01/06 13:12:15;;;;;;;2.92;0.65;;;;;;;;;;5033544;28;20078;-77
2023/01/06 13:14:47;;;;;;;0.45;0.45;;;;;;;;;;5019034;28;20546;-79
2023/01/06 13:17:13;;;;;;;1.05;0.68;;;;;;;;;;5036692;28;20037;-80
2023/01/06 13:19:47;;;;;;;1.30;0.88;;;;;;;;;;5033514;28;20025;-79
2023/01/06 13:22:22;;;;;;;0.85;0.40;;;;;;;;;;5033196;28;20025;-77
2023/01/06 13:24:57;;;;;;;3.50;2.50;;;;;;;;;;5014288;28;20025;-77
2023/01/06 13:27:36;;;;;;;1.10;0.90;;;;;;;;;;5014274;28;20032;-76
2023/01/06 13:30:17;;;;;;;2.58;1.10;;;;;;;;;;5032265;28;20483;-79
2023/01/06 13:33:01;;;;;;;1.63;0.90;;;;;;;;;;4999598;28;20028;-77
2023/01/06 13:35:36;;;;;;;1.02;0.70;;;;;;;;;;5031732;28;20032;-76
2023/01/06 13:38:05;;;;;;;1.42;0.68;;;;;;;;;;5031210;28;20028;-77
2023/01/06 13:40:35;;;;;;;3.60;0.80;;;;;;;;;;5015872;28;20021;-75
2023/01/06 13:43:27;;;;;;;2.85;1.02;;;;;;;;;;5031800;28;20491;-76
2023/01/06 13:45:57;;;;;;;2.08;0.60;;;;;;;;;;5027892;28;20526;-76
2023/01/06 13:48:25;;;;;;;0.40;0.40;;;;;;;;;;5013570;28;20057;-77
2023/01/06 13:50:51;;;;;;;1.98;0.40;;;;;;;;;;5013528;28;20029;-78
2023/01/06 13:53:20;;;;;;;2.53;0.55;;;;;;;;;;5031843;28;20562;-77
2023/01/06 13:55:46;;;;;;;1.33;0.63;;;;;;;;;;5013771;28;20026;-76
2023/01/06 13:58:29;;;;;;;0.68;0.50;;;;;;;;;;5031209;28;20101;-77
2023/01/06 14:01:05;;;;;;;2.72;0.73;;;;;;;;;;5031310;28;20040;-76
2023/01/06 14:03:31;;;;;;;1.35;0.60;;;;;;;;;;5013684;28;20033;-77
2023/01/06 14:05:58;;;;;;;1.45;0.60;;;;;;;;;;5031221;28;20022;-77
2023/01/06 14:08:26;;;;;;;4.78;1.33;;;;;;;;;;5030639;28;20380;-76
2023/01/06 14:10:57;;;;;;;2.90;1.10;;;;;;;;;;5031230;28;20460;-76
2023/01/06 14:13:23;;;;;;;;;;;;;;;;;;5031494;28;20037;-76
2023/01/06 14:15:54;;;;;;;1.80;0.85;;;;;;;;;;5031321;28;19909;-78
2023/01/06 14:18:35;;;;;;;2.23;0.70;;;;;;;;;;5032539;28;20053;-79
2023/01/06 14:21:03;;;;;;;1.67;0.60;;;;;;;;;;5014207;28;20337;-79
2023/01/06 14:23:29;;;;;;;1.23;0.75;;;;;;;;;;5031712;28;20017;-77
2023/01/06 14:25:56;;;;;;;3.75;0.90;;;;;;;;;;5016221;28;20025;-77
2023/01/06 14:28:24;;;;;;;1.85;1.05;;;;;;;;;;5033310;28;20018;-78
2023/01/06 14:30:51;;;;;;;0.65;0.55;;;;;;;;;;5031433;28;20022;-78
2023/01/06 14:33:29;;;;;;;2.20;0.63;;;;;;;;;;5031008;28;20039;-78
2023/01/06 14:36:01;;;;;;;1.45;0.70;;;;;;;;;;5031967;28;20235;-78
2023/01/06 14:38:45;;;;;;;5.60;1.25;;;;;;;;;;5031012;28;20467;-79
2023/01/06 14:41:14;;;;;;;3.28;1.13;;;;;;;;;;5032400;28;20485;-78
2023/01/06 14:43:42;;;;;;;1.65;0.55;;;;;;;;;;5035491;28;20025;-78
2023/01/06 14:46:14;;;;;;;1.17;0.82;;;;;;;;;;5035426;28;20029;-78
2023/01/06 14:48:43;;;;;;;1.02;0.55;;;;;;;;;;5035837;28;20094;-79
2023/01/06 14:51:13;;;;;;;1.73;1.08;;;;;;;;;;5019158;28;20606;-78
2023/01/06 14:53:41;;;;;;;1.33;0.88;;;;;;;;;;5036681;28;20041;-79
2023/01/06 14:56:14;;;;;;;1.10;0.73;;;;;;;;;;5034525;28;20120;-78